Gaz Palmyra — 3FCO4 — position and weather

sailwx.info

Track history (hours):
 
Tides and Currents Weather Stations Pressure Air Temp Water Temp Dewpoint Dewpoint Depression Visibility Wind Speed Wind Dir Waves Ship Positions

Gaz Palmyra

Last reported at 2014-Aug-30 18:27 UTC. Time now 2014-Sep-02 23:51 UTC.
Position N 36°22' E 000°20'.

Length 137 m; draft 8 m.

Type: Ship (hazmat cat C). MMSI: 353247000.

Date/timePositionNaut miles runAvg speedWind from/ knotsBaromVisibWave heightAir tempDewpointWater temp
2014-Aug-30 18:27N 36°22' E 000°20'43 1.6
2014-Aug-29 15:26N 35°51' W 000°17'4 0.9
2014-Aug-29 11:33N 35°54' W 000°15'1 0.5
2014-Aug-29 10:31N 35°54' W 000°14'7 1.7
2014-Aug-29 06:13N 35°59' W 000°08'0 0.4
2014-Aug-29 05:33N 35°60' W 000°08'3 0.7
2014-Aug-29 01:33N 36°01' W 000°11'0 0.1
2014-Aug-28 23:33N 36°01' W 000°11'1 0.3
2014-Aug-28 21:32N 36°02' W 000°11'0 0.3
2014-Aug-28 20:31N 36°02' W 000°11'7 7.5
2014-Aug-28 19:33N 35°56' W 000°16'0 0.5
2014-Aug-28 18:32N 35°56' W 000°16'1 0.5
2014-Aug-28 17:15N 35°57' W 000°15'0 0.5
2014-Aug-28 16:33N 35°57' W 000°15'1 0.6
2014-Aug-28 15:29N 35°58' W 000°14'1 0.6
2014-Aug-28 14:23N 35°58' W 000°14'1 0.5
2014-Aug-28 11:33N 35°60' W 000°13'0 0.3
2014-Aug-28 10:11N 35°60' W 000°13'0 0.3
2014-Aug-28 09:32N 36°00' W 000°13'1 1.4
2014-Aug-28 08:33N 36°01' W 000°12'8 2.7
2014-Aug-28 05:31N 36°06' W 000°04'0 0.0
2014-Aug-28 04:03N 36°06' W 000°04'1 0.3
2014-Aug-28 00:12N 36°05' W 000°05'0 0.4
2014-Aug-27 23:33N 36°05' W 000°06'0 0.5
2014-Aug-27 22:33N 36°05' W 000°06'1 0.5
2014-Aug-27 20:14N 36°04' W 000°07'0 0.3
2014-Aug-27 19:33N 36°04' W 000°07'0 0.2
2014-Aug-27 18:28N 36°04' W 000°07'0 0.2
2014-Aug-27 17:31N 36°04' W 000°07'0 0.3
2014-Aug-27 16:33N 36°04' W 000°08'0 0.3
2014-Aug-27 15:33N 36°04' W 000°08'0 0.4
2014-Aug-27 14:33N 36°03' W 000°08'0 0.5
2014-Aug-27 13:33N 36°03' W 000°09'1 0.5
2014-Aug-27 12:33N 36°03' W 000°10'1 0.6
2014-Aug-27 11:18N 36°03' W 000°10'1 0.7
2014-Aug-27 10:28N 36°03' W 000°11'1 0.7
2014-Aug-27 09:24N 36°02' W 000°11'1 0.7
2014-Aug-27 08:31N 36°01' W 000°12'6 6.0
2014-Aug-27 07:29N 36°06' W 000°07'1 0.6
2014-Aug-27 06:33N 36°06' W 000°06'2 1.3
2014-Aug-27 05:22N 36°04' W 000°07'1 1.1
2014-Aug-27 04:32N 36°03' W 000°07'1 1.0
2014-Aug-27 03:33N 36°02' W 000°08'1 0.8
2014-Aug-27 02:33N 36°02' W 000°08'1 0.6
2014-Aug-27 01:33N 36°01' W 000°08'1 0.6
2014-Aug-27 00:07N 36°01' W 000°09'0 0.7
2014-Aug-26 23:30N 36°01' W 000°09'1 0.8
2014-Aug-26 22:33N 36°01' W 000°10'1 0.9
2014-Aug-26 21:33N 36°00' W 000°11'1 0.6
2014-Aug-26 20:31N 36°01' W 000°12'6 5.7
2014-Aug-26 19:32N 35°60' W 000°05'1 0.5
2014-Aug-26 18:15N 36°00' W 000°05'0 0.5
2014-Aug-26 17:33N 36°01' W 000°05'1 0.6
2014-Aug-26 16:32N 36°01' W 000°05'1 0.7
2014-Aug-26 15:10N 36°02' W 000°06'0 0.8
2014-Aug-26 14:33N 36°02' W 000°06'1 0.8
2014-Aug-26 13:33N 36°03' W 000°07'1 0.8
2014-Aug-26 12:33N 36°03' W 000°08'1 0.7
2014-Aug-26 11:33N 36°03' W 000°09'1 0.7
2014-Aug-26 10:33N 36°03' W 000°10'1 0.6
2014-Aug-26 09:31N 36°04' W 000°09'1111.2
2014-Aug-26 08:32N 36°09' E 000°02'1512.4
2014-Aug-26 07:20N 36°19' E 000°16'1012.3
2014-Aug-26 06:33N 36°25' E 000°25'1211.9
2014-Aug-26 05:33N 36°33' E 000°36'1111.1
2014-Aug-26 04:33N 36°39' E 000°48'1212.1
2014-Aug-26 03:33N 36°45' E 001°01'1212.0
2014-Aug-26 02:33N 36°46' E 001°16'1212.1
2014-Aug-26 01:33N 36°47' E 001°31'1312.0
2014-Aug-26 00:28N 36°49' E 001°47'1311.9
2014-Aug-25 23:21N 36°51' E 002°03'911.8
2014-Aug-25 22:33N 36°52' E 002°15'1211.8
2014-Aug-25 21:31N 36°54' E 002°30'1111.3
2014-Aug-25 20:33N 36°55' E 002°43'3 3.2
2014-Aug-25 19:33N 36°55' E 002°47'1 1.0
2014-Aug-25 18:33N 36°54' E 002°48'1 1.1
2014-Aug-25 17:33N 36°54' E 002°49'9 9.3
2014-Aug-25 16:34N 36°53' E 003°00'8 3.8
2014-Aug-25 14:30N 36°46' E 003°05'0 0.0
2014-Aug-25 11:30N 36°46' E 003°05'  
2014-Aug-22 05:28N 36°46' E 003°06'1 0.7
2014-Aug-22 04:21N 36°47' E 003°06'0 0.0
2014-Aug-22 03:27N 36°47' E 003°06'0 0.0
2014-Aug-22 02:09N 36°47' E 003°06'0 0.0
2014-Aug-21 22:09N 36°47' E 003°06'0 0.0
2014-Aug-21 21:33N 36°47' E 003°06'0 0.0
2014-Aug-21 20:21N 36°47' E 003°06'2 1.1
2014-Aug-21 18:19N 36°49' E 003°06'3111.4
2014-Aug-21 15:33N 36°51' E 002°26'8413.7
2014-Aug-21 09:24N 36°37' E 000°43'1213.8
2014-Aug-21 08:30N 36°30' E 000°30'1213.1
2014-Aug-21 07:33N 36°21' E 000°20'  
Track history (hours):
 
Tides and Currents Weather Stations Pressure Air Temp Water Temp Dewpoint Dewpoint Depression Visibility Wind Speed Wind Dir Waves Ship Positions

Gaz Palmyra

Last reported at 2014-Aug-30 18:27 UTC. Time now 2014-Sep-02 23:51 UTC.
Position N 36°22' E 000°20'.

Length 137 m; draft 8 m.

Type: Ship (hazmat cat C). MMSI: 353247000.

Date/timePositionNaut miles runAvg speedWind from/ knotsBaromVisibWave heightAir tempDewpointWater temp
2014-Aug-30 18:27N 36°22' E 000°20'43 1.6
2014-Aug-29 15:26N 35°51' W 000°17'4 0.9
2014-Aug-29 11:33N 35°54' W 000°15'1 0.5
2014-Aug-29 10:31N 35°54' W 000°14'7 1.7
2014-Aug-29 06:13N 35°59' W 000°08'0 0.4
2014-Aug-29 05:33N 35°60' W 000°08'3 0.7
2014-Aug-29 01:33N 36°01' W 000°11'0 0.1
2014-Aug-28 23:33N 36°01' W 000°11'1 0.3
2014-Aug-28 21:32N 36°02' W 000°11'0 0.3
2014-Aug-28 20:31N 36°02' W 000°11'7 7.5
2014-Aug-28 19:33N 35°56' W 000°16'0 0.5
2014-Aug-28 18:32N 35°56' W 000°16'1 0.5
2014-Aug-28 17:15N 35°57' W 000°15'0 0.5
2014-Aug-28 16:33N 35°57' W 000°15'1 0.6
2014-Aug-28 15:29N 35°58' W 000°14'1 0.6
2014-Aug-28 14:23N 35°58' W 000°14'1 0.5
2014-Aug-28 11:33N 35°60' W 000°13'0 0.3
2014-Aug-28 10:11N 35°60' W 000°13'0 0.3
2014-Aug-28 09:32N 36°00' W 000°13'1 1.4
2014-Aug-28 08:33N 36°01' W 000°12'8 2.7
2014-Aug-28 05:31N 36°06' W 000°04'0 0.0
2014-Aug-28 04:03N 36°06' W 000°04'1 0.3
2014-Aug-28 00:12N 36°05' W 000°05'0 0.4
2014-Aug-27 23:33N 36°05' W 000°06'0 0.5
2014-Aug-27 22:33N 36°05' W 000°06'1 0.5
2014-Aug-27 20:14N 36°04' W 000°07'0 0.3
2014-Aug-27 19:33N 36°04' W 000°07'0 0.2
2014-Aug-27 18:28N 36°04' W 000°07'0 0.2
2014-Aug-27 17:31N 36°04' W 000°07'0 0.3
2014-Aug-27 16:33N 36°04' W 000°08'0 0.3
2014-Aug-27 15:33N 36°04' W 000°08'0 0.4
2014-Aug-27 14:33N 36°03' W 000°08'0 0.5
2014-Aug-27 13:33N 36°03' W 000°09'1 0.5
2014-Aug-27 12:33N 36°03' W 000°10'1 0.6
2014-Aug-27 11:18N 36°03' W 000°10'1 0.7
2014-Aug-27 10:28N 36°03' W 000°11'1 0.7
2014-Aug-27 09:24N 36°02' W 000°11'1 0.7
2014-Aug-27 08:31N 36°01' W 000°12'6 6.0
2014-Aug-27 07:29N 36°06' W 000°07'1 0.6
2014-Aug-27 06:33N 36°06' W 000°06'2 1.3
2014-Aug-27 05:22N 36°04' W 000°07'1 1.1
2014-Aug-27 04:32N 36°03' W 000°07'1 1.0
2014-Aug-27 03:33N 36°02' W 000°08'1 0.8
2014-Aug-27 02:33N 36°02' W 000°08'1 0.6
2014-Aug-27 01:33N 36°01' W 000°08'1 0.6
2014-Aug-27 00:07N 36°01' W 000°09'0 0.7
2014-Aug-26 23:30N 36°01' W 000°09'1 0.8
2014-Aug-26 22:33N 36°01' W 000°10'1 0.9
2014-Aug-26 21:33N 36°00' W 000°11'1 0.6
2014-Aug-26 20:31N 36°01' W 000°12'6 5.7
2014-Aug-26 19:32N 35°60' W 000°05'1 0.5
2014-Aug-26 18:15N 36°00' W 000°05'0 0.5
2014-Aug-26 17:33N 36°01' W 000°05'1 0.6
2014-Aug-26 16:32N 36°01' W 000°05'1 0.7
2014-Aug-26 15:10N 36°02' W 000°06'0 0.8
2014-Aug-26 14:33N 36°02' W 000°06'1 0.8
2014-Aug-26 13:33N 36°03' W 000°07'1 0.8
2014-Aug-26 12:33N 36°03' W 000°08'1 0.7
2014-Aug-26 11:33N 36°03' W 000°09'1 0.7
2014-Aug-26 10:33N 36°03' W 000°10'1 0.6
2014-Aug-26 09:31N 36°04' W 000°09'1111.2
2014-Aug-26 08:32N 36°09' E 000°02'1512.4
2014-Aug-26 07:20N 36°19' E 000°16'1012.3
2014-Aug-26 06:33N 36°25' E 000°25'1211.9
2014-Aug-26 05:33N 36°33' E 000°36'1111.1
2014-Aug-26 04:33N 36°39' E 000°48'1212.1
2014-Aug-26 03:33N 36°45' E 001°01'1212.0
2014-Aug-26 02:33N 36°46' E 001°16'1212.1
2014-Aug-26 01:33N 36°47' E 001°31'1312.0
2014-Aug-26 00:28N 36°49' E 001°47'1311.9
2014-Aug-25 23:21N 36°51' E 002°03'911.8
2014-Aug-25 22:33N 36°52' E 002°15'1211.8
2014-Aug-25 21:31N 36°54' E 002°30'1111.3
2014-Aug-25 20:33N 36°55' E 002°43'3 3.2
2014-Aug-25 19:33N 36°55' E 002°47'1 1.0
2014-Aug-25 18:33N 36°54' E 002°48'1 1.1
2014-Aug-25 17:33N 36°54' E 002°49'9 9.3
2014-Aug-25 16:34N 36°53' E 003°00'8 3.8
2014-Aug-25 14:30N 36°46' E 003°05'0 0.0
2014-Aug-25 11:30N 36°46' E 003°05'  
2014-Aug-22 05:28N 36°46' E 003°06'1 0.7
2014-Aug-22 04:21N 36°47' E 003°06'0 0.0
2014-Aug-22 03:27N 36°47' E 003°06'0 0.0
2014-Aug-22 02:09N 36°47' E 003°06'0 0.0
2014-Aug-21 22:09N 36°47' E 003°06'0 0.0
2014-Aug-21 21:33N 36°47' E 003°06'0 0.0
2014-Aug-21 20:21N 36°47' E 003°06'2 1.1
2014-Aug-21 18:19N 36°49' E 003°06'3111.4
2014-Aug-21 15:33N 36°51' E 002°26'8413.7
2014-Aug-21 09:24N 36°37' E 000°43'1213.8
2014-Aug-21 08:30N 36°30' E 000°30'1213.1
2014-Aug-21 07:33N 36°21' E 000°20'  

Dump ship's entire track history